createdAt,value
2019-03-11T00:00:58.200Z,2.80
2019-03-11T00:03:25.617Z,2.83
2019-03-11T00:05:52.855Z,3.08
2019-03-11T00:08:20.181Z,3.70
2019-03-11T00:10:47.389Z,3.17
2019-03-11T00:13:14.607Z,2.52
2019-03-11T00:15:41.899Z,2.95
2019-03-11T00:18:09.200Z,2.75
2019-03-11T00:20:36.583Z,2.35
2019-03-11T00:23:03.789Z,1.87
2019-03-11T00:25:31.127Z,1.25
2019-03-11T00:27:58.356Z,1.42
2019-03-11T00:30:25.652Z,1.60
2019-03-11T00:32:52.959Z,2.52
2019-03-11T00:35:20.214Z,1.77
2019-03-11T00:37:47.424Z,1.70
2019-03-11T00:40:14.623Z,1.67
2019-03-11T00:42:41.994Z,2.27
2019-03-11T00:45:09.765Z,2.22
2019-03-11T00:47:37.091Z,1.45
2019-03-11T00:50:05.229Z,2.25
2019-03-11T00:52:32.609Z,1.67
2019-03-11T00:55:00.014Z,1.80
2019-03-11T00:57:27.210Z,2.08
2019-03-11T00:59:54.453Z,1.77
2019-03-11T01:02:21.800Z,1.35
2019-03-11T01:04:49.202Z,1.30
2019-03-11T01:07:16.409Z,1.50
2019-03-11T01:09:43.658Z,1.72
2019-03-11T01:12:10.862Z,1.32
2019-03-11T01:14:38.264Z,1.47
2019-03-11T01:17:05.458Z,1.50
2019-03-11T01:19:32.678Z,1.35
2019-03-11T01:22:00.034Z,1.80
2019-03-11T01:24:27.327Z,1.40
2019-03-11T01:26:54.564Z,1.75
2019-03-11T01:29:21.928Z,1.60
2019-03-11T01:31:49.233Z,1.52
2019-03-11T01:34:16.559Z,1.57
2019-03-11T01:36:43.910Z,1.52
2019-03-11T01:39:11.121Z,1.82
2019-03-11T01:41:38.433Z,1.77
2019-03-11T01:44:05.809Z,2.35
2019-03-11T01:46:33.127Z,1.95
2019-03-11T01:49:00.378Z,2.20
2019-03-11T01:51:27.582Z,2.30
2019-03-11T01:53:54.898Z,2.42
2019-03-11T01:56:22.243Z,2.67
2019-03-11T01:58:49.505Z,2.17
2019-03-11T02:01:16.852Z,2.50
2019-03-11T02:03:44.213Z,2.62
2019-03-11T02:06:11.447Z,3.05
2019-03-11T02:08:38.737Z,2.55
2019-03-11T02:11:06.065Z,2.17
2019-03-11T02:13:34.519Z,2.77
2019-03-11T02:16:01.840Z,2.37
2019-03-11T02:18:29.142Z,2.10
2019-03-11T02:20:56.554Z,1.98
2019-03-11T02:23:23.879Z,2.17
2019-03-11T02:25:51.194Z,2.42
2019-03-11T02:28:18.414Z,2.67
2019-03-11T02:30:45.628Z,2.55
2019-03-11T02:33:12.822Z,2.98
2019-03-11T02:35:40.133Z,2.90
2019-03-11T02:38:07.514Z,2.00
2019-03-11T02:40:34.762Z,2.67
2019-03-11T02:43:02.123Z,2.50
2019-03-11T02:45:29.386Z,2.00
2019-03-11T02:47:56.726Z,2.37
2019-03-11T02:50:24.237Z,2.05
2019-03-11T02:52:51.480Z,1.82
2019-03-11T02:55:18.796Z,1.87
2019-03-11T02:57:46.019Z,2.02
2019-03-11T03:00:15.821Z,1.98
2019-03-11T03:03:09.125Z,1.87
2019-03-11T03:05:40.259Z,1.92
2019-03-11T03:08:07.590Z,2.20
2019-03-11T03:10:34.784Z,2.20
2019-03-11T03:13:02.100Z,2.12
2019-03-11T03:15:29.437Z,2.70
2019-03-11T03:17:56.761Z,2.15
2019-03-11T03:20:23.956Z,1.80
2019-03-11T03:22:51.293Z,1.87
2019-03-11T03:25:32.783Z,1.62
2019-03-11T03:27:47.851Z,1.45
2019-03-11T03:30:15.886Z,2.17
2019-03-11T03:32:43.189Z,1.42
2019-03-11T03:35:10.576Z,1.80
2019-03-11T03:37:37.892Z,1.80
2019-03-11T03:40:05.384Z,2.33
2019-03-11T03:42:32.767Z,1.90
2019-03-11T03:45:22.351Z,2.30
2019-03-11T03:47:49.584Z,2.52
2019-03-11T03:50:16.771Z,2.77
2019-03-11T03:52:44.122Z,3.22
2019-03-11T03:55:11.436Z,2.55
2019-03-11T03:57:38.649Z,1.92
2019-03-11T04:00:05.931Z,1.98
2019-03-11T04:02:33.237Z,2.10
2019-03-11T04:05:00.529Z,2.00
2019-03-11T04:07:27.952Z,2.20
2019-03-11T04:09:55.268Z,1.98
2019-03-11T04:12:22.470Z,1.77
2019-03-11T04:14:49.714Z,2.10
2019-03-11T04:17:16.973Z,2.10
2019-03-11T04:19:44.214Z,2.22
2019-03-11T04:22:11.614Z,2.35
2019-03-11T04:24:39.111Z,2.40
2019-03-11T04:27:08.454Z,2.25
2019-03-11T04:29:35.696Z,1.98
2019-03-11T04:32:02.985Z,2.45
2019-03-11T04:34:30.338Z,2.58
2019-03-11T04:36:57.652Z,2.52
2019-03-11T04:39:24.860Z,2.80
2019-03-11T04:41:52.180Z,2.65
2019-03-11T04:44:19.532Z,2.75
2019-03-11T04:46:46.753Z,2.33
2019-03-11T04:49:14.666Z,2.70
2019-03-11T04:51:41.987Z,2.27
2019-03-11T04:54:09.329Z,2.12
2019-03-11T04:56:36.643Z,1.60
2019-03-11T04:59:11.235Z,1.77
2019-03-11T05:01:38.575Z,1.50
2019-03-11T05:04:05.818Z,1.17
2019-03-11T05:06:33.124Z,1.47
2019-03-11T05:09:00.775Z,1.47
2019-03-11T05:11:27.993Z,1.35
2019-03-11T05:13:55.357Z,1.17
2019-03-11T05:16:22.941Z,1.10
2019-03-11T05:18:50.328Z,1.32
2019-03-11T05:21:17.663Z,1.02
2019-03-11T05:23:44.910Z,1.17
2019-03-11T05:26:12.249Z,1.10
2019-03-11T05:28:39.620Z,1.35
2019-03-11T05:31:06.858Z,1.00
2019-03-11T05:33:34.262Z,1.32
2019-03-11T05:36:01.578Z,1.82
2019-03-11T05:38:28.945Z,2.47
2019-03-11T05:40:56.390Z,1.92
2019-03-11T05:43:23.706Z,1.72
2019-03-11T05:45:50.924Z,2.08
2019-03-11T05:48:18.168Z,1.72
2019-03-11T05:50:45.475Z,2.00
2019-03-11T05:53:12.843Z,1.75
2019-03-11T05:55:40.161Z,2.17
2019-03-11T05:58:07.408Z,2.15
2019-03-11T06:00:34.727Z,1.98
2019-03-11T06:03:01.950Z,1.70
2019-03-11T06:05:29.173Z,1.90
2019-03-11T06:07:56.497Z,1.80
2019-03-11T06:10:23.742Z,1.60
2019-03-11T06:12:50.955Z,1.52
2019-03-11T06:15:18.173Z,1.60
2019-03-11T06:17:45.567Z,1.85
2019-03-11T06:20:38.784Z,1.37
2019-03-11T06:23:07.518Z,1.30
2019-03-11T06:25:35.048Z,1.80
2019-03-11T06:28:02.601Z,1.85
2019-03-11T06:30:29.937Z,1.77
2019-03-11T06:32:57.259Z,2.20
2019-03-11T06:35:24.489Z,2.92
2019-03-11T06:37:51.722Z,2.87
2019-03-11T06:40:19.040Z,2.70
2019-03-11T06:42:46.368Z,3.30
2019-03-11T06:45:13.874Z,3.42
2019-03-11T06:47:41.210Z,3.45
2019-03-11T06:50:08.521Z,3.90
2019-03-11T06:52:35.851Z,2.83
2019-03-11T06:55:03.363Z,3.27
2019-03-11T06:57:30.709Z,2.83
2019-03-11T06:59:58.014Z,3.40
2019-03-11T07:02:25.366Z,2.65
2019-03-11T07:04:52.569Z,2.80
2019-03-11T07:07:19.810Z,3.27
2019-03-11T07:09:47.033Z,3.05
2019-03-11T07:12:14.356Z,3.05
2019-03-11T07:14:41.668Z,3.20
2019-03-11T07:17:08.904Z,3.92
2019-03-11T07:19:36.482Z,3.12
2019-03-11T07:22:03.793Z,3.90
2019-03-11T07:24:31.016Z,2.75
2019-03-11T07:26:58.329Z,2.77
2019-03-11T07:29:25.532Z,2.80
2019-03-11T07:31:52.736Z,3.08
2019-03-11T07:34:20.083Z,3.20
2019-03-11T07:36:47.345Z,3.22
2019-03-11T07:39:14.649Z,3.17
2019-03-11T07:41:41.968Z,3.42
2019-03-11T07:44:09.285Z,2.52
2019-03-11T07:46:36.600Z,1.87
2019-03-11T07:49:03.776Z,1.85
2019-03-11T07:51:30.993Z,2.00
2019-03-11T07:53:58.297Z,1.52
2019-03-11T07:56:25.588Z,2.00
2019-03-11T07:58:52.815Z,1.98
2019-03-11T08:01:20.096Z,2.20
2019-03-11T08:03:47.292Z,2.50
2019-03-11T08:06:18.609Z,2.40
2019-03-11T08:08:43.605Z,2.20
2019-03-11T08:11:10.913Z,2.25
2019-03-11T08:13:38.248Z,2.67
2019-03-11T08:16:05.546Z,2.85
2019-03-11T08:18:35.213Z,2.95
2019-03-11T08:21:01.876Z,3.87
2019-03-11T08:23:29.069Z,4.00
2019-03-11T08:25:56.388Z,3.52
2019-03-11T08:28:23.637Z,3.98
2019-03-11T08:30:51.194Z,3.55
2019-03-11T08:33:18.393Z,2.92
2019-03-11T08:35:45.578Z,3.17
2019-03-11T08:38:12.920Z,3.17
2019-03-11T08:40:42.672Z,3.50
2019-03-11T08:43:10.544Z,3.75
2019-03-11T08:45:37.744Z,3.12
2019-03-11T08:48:05.060Z,3.00
2019-03-11T08:50:32.365Z,3.52
2019-03-11T08:52:59.585Z,3.42
2019-03-11T08:55:26.791Z,3.50
2019-03-11T08:57:53.978Z,3.12
2019-03-11T09:00:21.697Z,2.92
2019-03-11T09:02:49.010Z,2.62
2019-03-11T09:05:16.203Z,3.05
2019-03-11T09:07:43.404Z,3.20
2019-03-11T09:10:11.781Z,3.10
2019-03-11T09:12:38.969Z,3.72
2019-03-11T09:15:08.433Z,4.55
2019-03-11T09:17:35.789Z,3.02
2019-03-11T09:20:03.299Z,3.70
2019-03-11T09:22:30.507Z,3.65
2019-03-11T09:24:57.802Z,3.02
2019-03-11T09:27:25.021Z,3.00
2019-03-11T09:29:52.198Z,3.42
2019-03-11T09:32:19.676Z,3.95
2019-03-11T09:34:47.100Z,3.58
2019-03-11T09:37:14.393Z,4.12
2019-03-11T09:39:41.687Z,3.72
2019-03-11T09:42:09.113Z,2.83
2019-03-11T09:44:36.350Z,4.17
2019-03-11T09:47:03.698Z,3.30
2019-03-11T09:49:30.887Z,2.80
2019-03-11T09:51:58.689Z,4.28
2019-03-11T09:54:25.988Z,3.77
2019-03-11T09:56:53.300Z,3.35
2019-03-11T09:59:20.500Z,3.40
2019-03-11T10:01:47.892Z,3.55
2019-03-11T10:04:15.118Z,4.37
2019-03-11T10:06:42.328Z,3.67
2019-03-11T10:09:09.547Z,2.98
2019-03-11T10:11:36.766Z,3.45
2019-03-11T10:14:04.088Z,3.58
2019-03-11T10:16:31.410Z,3.30
2019-03-11T10:18:58.631Z,3.52
2019-03-11T10:21:25.832Z,4.15
2019-03-11T10:23:53.066Z,4.08
2019-03-11T10:26:20.294Z,3.50
2019-03-11T10:28:47.630Z,3.90
2019-03-11T10:31:14.934Z,3.02
2019-03-11T10:33:42.236Z,3.58
2019-03-11T10:36:09.582Z,3.42
2019-03-11T10:38:36.784Z,3.58
2019-03-11T10:41:03.996Z,3.30
2019-03-11T10:43:31.284Z,3.25
2019-03-11T10:45:58.628Z,3.40
2019-03-11T10:48:36.390Z,3.62
2019-03-11T10:50:55.079Z,3.58
2019-03-11T10:53:22.462Z,3.70
2019-03-11T10:55:49.669Z,3.47
2019-03-11T10:58:16.984Z,2.80
2019-03-11T11:00:44.192Z,3.47
2019-03-11T11:03:11.478Z,2.85
2019-03-11T11:05:40.830Z,3.05
2019-03-11T11:08:08.134Z,2.75
2019-03-11T11:10:35.435Z,3.42
2019-03-11T11:13:02.859Z,3.15
2019-03-11T11:15:30.327Z,3.00
2019-03-11T11:17:57.543Z,3.35
2019-03-11T11:20:24.830Z,4.15
2019-03-11T11:22:52.352Z,3.37
2019-03-11T11:25:19.656Z,3.47
2019-03-11T11:27:46.981Z,3.02
2019-03-11T11:30:16.668Z,3.77
2019-03-11T11:32:43.960Z,3.77
2019-03-11T11:35:11.307Z,3.17
2019-03-11T11:37:38.495Z,3.67
2019-03-11T11:40:08.569Z,3.58
2019-03-11T11:42:35.767Z,3.83
2019-03-11T11:45:03.389Z,3.37
2019-03-11T11:47:30.684Z,3.27
2019-03-11T11:49:58.109Z,2.77
2019-03-11T11:52:25.413Z,2.30
2019-03-11T11:54:52.634Z,2.30
2019-03-11T11:57:19.809Z,2.23
2019-03-11T11:59:54.085Z,3.13
2019-03-11T12:02:16.251Z,2.30
2019-03-11T12:04:43.571Z,2.10
2019-03-11T12:07:10.869Z,2.63
2019-03-11T12:09:38.093Z,1.87
2019-03-11T12:12:06.168Z,2.00
2019-03-11T12:14:33.587Z,2.90
2019-03-11T12:17:00.773Z,2.47
2019-03-11T12:19:27.985Z,2.40
2019-03-11T12:21:55.188Z,2.30
2019-03-11T12:24:22.385Z,2.20
2019-03-11T12:26:49.693Z,1.97
2019-03-11T12:29:16.897Z,2.65
2019-03-11T12:31:44.213Z,2.00
2019-03-11T12:34:11.545Z,2.00
2019-03-11T12:36:38.753Z,1.97
2019-03-11T12:39:06.183Z,2.00
2019-03-11T12:41:33.557Z,1.90
2019-03-11T12:44:00.865Z,1.50
2019-03-11T12:46:28.211Z,1.80
2019-03-11T12:48:55.393Z,1.83
2019-03-11T12:51:22.700Z,2.07
2019-03-11T12:53:49.925Z,2.00
2019-03-11T12:56:17.141Z,2.07
2019-03-11T12:58:44.341Z,1.73
2019-03-11T13:01:11.585Z,2.10
2019-03-11T13:03:38.888Z,2.27
2019-03-11T13:06:06.111Z,1.67
2019-03-11T13:08:33.589Z,2.27
2019-03-11T13:11:00.791Z,2.13
2019-03-11T13:13:28.154Z,1.83
2019-03-11T13:15:55.450Z,2.13
2019-03-11T13:18:34.036Z,1.47
2019-03-11T13:21:05.452Z,1.63
2019-03-11T13:23:32.856Z,1.80
2019-03-11T13:26:00.052Z,1.53
2019-03-11T13:28:27.248Z,1.83
2019-03-11T13:30:54.559Z,1.60
2019-03-11T13:33:21.897Z,2.13
2019-03-11T13:35:49.192Z,1.70
2019-03-11T13:38:16.501Z,2.00
2019-03-11T13:40:43.848Z,1.90
2019-03-11T13:43:11.056Z,1.73
2019-03-11T13:45:38.363Z,1.90
2019-03-11T13:48:05.615Z,1.63
2019-03-11T13:50:32.820Z,1.80
2019-03-11T13:53:00.101Z,1.80
2019-03-11T13:55:27.321Z,1.57
2019-03-11T13:57:54.628Z,1.40
2019-03-11T14:00:21.861Z,1.83
2019-03-11T14:02:49.282Z,1.50
2019-03-11T14:05:16.538Z,1.30
2019-03-11T14:07:43.866Z,1.77
2019-03-11T14:10:11.524Z,2.90
2019-03-11T14:12:38.824Z,2.17
2019-03-11T14:15:06.565Z,1.87
2019-03-11T14:17:33.780Z,1.63
2019-03-11T14:20:00.989Z,2.00
2019-03-11T14:22:28.200Z,1.60
2019-03-11T14:24:55.541Z,2.00
2019-03-11T14:27:22.761Z,1.47
2019-03-11T14:29:50.049Z,1.70
2019-03-11T14:32:18.074Z,2.17
2019-03-11T14:34:45.444Z,2.40
2019-03-11T14:37:12.664Z,1.70
2019-03-11T14:39:39.983Z,1.97
2019-03-11T14:42:07.375Z,2.10
2019-03-11T14:44:34.698Z,1.70
2019-03-11T14:47:01.992Z,1.93
2019-03-11T14:49:29.195Z,2.07
2019-03-11T14:51:56.526Z,1.87
2019-03-11T14:54:23.837Z,1.80
2019-03-11T14:56:51.114Z,2.23
2019-03-11T14:59:18.354Z,2.00
2019-03-11T15:01:45.543Z,2.17
2019-03-11T15:04:12.766Z,2.20
2019-03-11T15:06:39.986Z,1.87
2019-03-11T15:09:07.309Z,2.00
2019-03-11T15:11:34.519Z,1.80
2019-03-11T15:14:02.556Z,1.70
2019-03-11T15:16:29.831Z,1.93
2019-03-11T15:18:57.239Z,2.03
2019-03-11T15:21:24.531Z,1.70
2019-03-11T15:23:51.739Z,2.10
2019-03-11T15:26:24.959Z,2.83
2019-03-11T15:28:48.206Z,1.90
2019-03-11T15:31:15.518Z,2.53
2019-03-11T15:33:42.709Z,2.27
2019-03-11T15:36:09.917Z,2.10
2019-03-11T15:38:37.107Z,1.70
2019-03-11T15:41:04.450Z,2.63
2019-03-11T15:43:31.803Z,1.73
2019-03-11T15:45:59.013Z,2.07
2019-03-11T15:48:26.236Z,2.03
2019-03-11T15:50:53.477Z,2.00
2019-03-11T15:53:20.839Z,1.60
2019-03-11T15:55:48.065Z,1.60
2019-03-11T15:58:15.400Z,1.90
2019-03-11T16:00:42.711Z,2.20
2019-03-11T16:03:09.928Z,1.80
2019-03-11T16:05:37.137Z,2.07
2019-03-11T16:08:04.349Z,1.80
2019-03-11T16:10:31.739Z,1.73
2019-03-11T16:12:59.034Z,1.97
2019-03-11T16:15:26.348Z,1.87
2019-03-11T16:17:53.602Z,1.90
2019-03-11T16:20:21.004Z,2.10
2019-03-11T16:22:48.350Z,2.03
2019-03-11T16:25:15.789Z,2.30
2019-03-11T16:27:43.130Z,1.73
2019-03-11T16:30:12.267Z,1.70
2019-03-11T16:32:57.197Z,1.80
2019-03-11T16:35:08.750Z,2.20
2019-03-11T16:37:36.083Z,1.83
2019-03-11T16:40:03.769Z,2.20
2019-03-11T16:42:31.029Z,1.80
2019-03-11T16:44:58.397Z,1.57
2019-03-11T16:47:25.722Z,1.90
2019-03-11T16:49:53.044Z,1.93
2019-03-11T16:52:20.368Z,1.50
2019-03-11T16:54:47.706Z,1.70
2019-03-11T16:57:15.009Z,1.70
2019-03-11T16:59:42.443Z,2.10
2019-03-11T17:02:10.065Z,1.40
2019-03-11T17:04:37.404Z,1.50
2019-03-11T17:07:04.618Z,1.73
2019-03-11T17:09:31.908Z,1.43
2019-03-11T17:11:59.289Z,2.17
2019-03-11T17:14:26.603Z,1.93
2019-03-11T17:16:53.918Z,1.47
2019-03-11T17:19:21.218Z,1.97
2019-03-11T17:21:48.552Z,2.43
2019-03-11T17:24:15.833Z,1.92
2019-03-11T17:26:43.127Z,1.90
2019-03-11T17:29:10.436Z,2.10
2019-03-11T17:31:37.648Z,2.05
2019-03-11T17:34:05.001Z,1.70
2019-03-11T17:36:32.234Z,2.15
2019-03-11T17:38:59.461Z,1.90
2019-03-11T17:41:26.805Z,1.80
2019-03-11T17:43:54.018Z,1.90
2019-03-11T17:46:21.366Z,1.80
2019-03-11T17:48:48.726Z,1.72
2019-03-11T17:51:15.931Z,2.10
2019-03-11T17:53:43.135Z,2.08
2019-03-11T17:56:10.498Z,2.77
2019-03-11T17:58:37.915Z,2.02
2019-03-11T18:01:05.352Z,2.00
2019-03-11T18:03:32.709Z,2.20
2019-03-11T18:06:10.782Z,1.80
2019-03-11T18:08:29.249Z,2.08
2019-03-11T18:10:56.624Z,2.30
2019-03-11T18:13:23.950Z,2.42
2019-03-11T18:15:51.163Z,2.02
2019-03-11T18:18:18.561Z,2.40
2019-03-11T18:20:45.943Z,1.70
2019-03-11T18:23:13.259Z,1.90
2019-03-11T18:25:40.463Z,1.52
2019-03-11T18:28:07.796Z,2.10
2019-03-11T18:30:35.249Z,1.95
2019-03-11T18:33:02.580Z,2.17
2019-03-11T18:35:29.932Z,2.20
2019-03-11T18:38:04.255Z,1.98
2019-03-11T18:40:26.541Z,2.50
2019-03-11T18:42:53.854Z,2.40
2019-03-11T18:45:21.358Z,2.27
2019-03-11T18:47:48.683Z,1.87
2019-03-11T18:50:16.094Z,2.15
2019-03-11T18:52:43.469Z,2.22
2019-03-11T18:55:10.819Z,2.27
2019-03-11T18:57:38.328Z,1.90
2019-03-11T19:00:07.041Z,2.35
2019-03-11T19:02:34.483Z,2.20
2019-03-11T19:05:01.909Z,2.15
2019-03-11T19:07:29.364Z,1.92
2019-03-11T19:09:56.800Z,1.70
2019-03-11T19:12:24.240Z,2.00
2019-03-11T19:14:51.658Z,1.92
2019-03-11T19:17:18.992Z,2.55
2019-03-11T19:19:46.722Z,2.12
2019-03-11T19:22:14.195Z,1.72
2019-03-11T19:24:41.497Z,2.25
2019-03-11T19:27:08.964Z,2.30
2019-03-11T19:29:36.292Z,2.50
2019-03-11T19:32:05.576Z,2.10
2019-03-11T19:34:32.966Z,2.27
2019-03-11T19:37:00.325Z,2.08
2019-03-11T19:39:27.734Z,2.33
2019-03-11T19:41:55.219Z,2.25
2019-03-11T19:44:22.575Z,2.10
2019-03-11T19:46:49.968Z,2.20
2019-03-11T19:49:17.383Z,2.20
2019-03-11T19:51:44.789Z,2.10
2019-03-11T19:54:12.230Z,2.15
2019-03-11T19:56:39.524Z,2.67
2019-03-11T19:59:07.011Z,2.33
2019-03-11T20:01:34.453Z,2.35
2019-03-11T20:04:01.929Z,2.25
2019-03-11T20:06:29.206Z,2.70
2019-03-11T20:08:56.583Z,3.05
2019-03-11T20:11:25.086Z,2.17
2019-03-11T20:13:52.628Z,2.50
2019-03-11T20:16:20.027Z,2.33
2019-03-11T20:18:47.464Z,2.25
2019-03-11T20:21:14.833Z,2.02
2019-03-11T20:23:42.260Z,2.50
2019-03-11T20:26:09.613Z,2.37
2019-03-11T20:28:37.037Z,2.25
2019-03-11T20:31:04.477Z,2.05
2019-03-11T20:33:32.139Z,2.67
2019-03-11T20:35:59.708Z,2.17
2019-03-11T20:38:27.163Z,2.37
2019-03-11T20:40:54.631Z,2.60
2019-03-11T20:43:22.065Z,2.50
2019-03-11T20:45:49.603Z,2.40
2019-03-11T20:48:17.076Z,2.55
2019-03-11T20:50:44.398Z,2.00
2019-03-11T20:53:11.839Z,2.12
2019-03-11T20:55:39.356Z,2.60
2019-03-11T20:58:06.707Z,2.62
2019-03-11T21:00:34.117Z,2.87
2019-03-11T21:03:01.581Z,2.12
2019-03-11T21:05:29.029Z,2.50
2019-03-11T21:07:56.507Z,3.12
2019-03-11T21:10:23.960Z,2.67
2019-03-11T21:12:51.329Z,2.30
2019-03-11T21:15:18.852Z,2.50
2019-03-11T21:17:46.244Z,2.72
2019-03-11T21:20:13.970Z,2.85
2019-03-11T21:22:41.478Z,2.85
2019-03-11T21:25:10.674Z,2.50
2019-03-11T21:27:38.160Z,2.90
2019-03-11T21:30:06.443Z,3.22
2019-03-11T21:32:33.741Z,3.05
2019-03-11T21:35:01.263Z,3.20
2019-03-11T21:37:29.009Z,2.90
2019-03-11T21:39:56.423Z,3.20
2019-03-11T21:42:23.869Z,3.05
2019-03-11T21:44:51.536Z,2.72
2019-03-11T21:47:19.107Z,2.98
2019-03-11T21:49:46.518Z,3.05
2019-03-11T21:52:13.990Z,2.58
2019-03-11T21:54:41.409Z,3.37
2019-03-11T21:57:08.821Z,2.75
2019-03-11T21:59:36.355Z,2.72
2019-03-11T22:02:03.777Z,3.05
2019-03-11T22:04:31.032Z,4.83
2019-03-11T22:06:58.406Z,3.27
2019-03-11T22:09:25.634Z,3.15
2019-03-11T22:11:53.087Z,3.50
2019-03-11T22:14:20.447Z,3.22
2019-03-11T22:16:47.812Z,2.92
2019-03-11T22:19:15.020Z,3.37
2019-03-11T22:21:42.349Z,2.60
2019-03-11T22:24:09.665Z,3.50
2019-03-11T22:26:37.004Z,3.27
2019-03-11T22:29:04.206Z,3.50
2019-03-11T22:31:31.527Z,3.30
2019-03-11T22:33:58.852Z,3.10
2019-03-11T22:36:26.188Z,3.70
2019-03-11T22:38:53.400Z,4.40
2019-03-11T22:41:20.733Z,4.17
2019-03-11T22:43:48.042Z,3.98
2019-03-11T22:46:15.257Z,4.80
2019-03-11T22:48:42.465Z,4.55
2019-03-11T22:51:09.815Z,5.00
2019-03-11T22:53:37.149Z,4.42
2019-03-11T22:56:04.520Z,4.78
2019-03-11T22:58:31.816Z,4.40
2019-03-11T23:01:00.945Z,4.45
2019-03-11T23:03:28.177Z,4.37
2019-03-11T23:05:58.217Z,4.87
2019-03-11T23:08:24.707Z,4.62
2019-03-11T23:10:52.077Z,4.40
2019-03-11T23:13:19.473Z,4.10
2019-03-11T23:15:46.720Z,4.30
2019-03-11T23:18:13.997Z,4.37
2019-03-11T23:20:41.205Z,4.22
2019-03-11T23:23:08.566Z,3.98
2019-03-11T23:25:35.880Z,3.85
2019-03-11T23:28:03.573Z,4.37
2019-03-11T23:30:30.871Z,4.12
2019-03-11T23:32:58.329Z,3.75
2019-03-11T23:35:25.740Z,3.60
2019-03-11T23:37:53.047Z,3.87
2019-03-11T23:40:20.389Z,3.17
2019-03-11T23:42:47.684Z,3.75
2019-03-11T23:45:14.906Z,4.20
2019-03-11T23:47:42.224Z,3.67
2019-03-11T23:50:09.604Z,4.15
2019-03-11T23:52:36.992Z,4.05
2019-03-11T23:55:04.626Z,3.90
2019-03-11T23:57:31.948Z,4.03
2019-03-11T23:59:59.288Z,4.30
